Time;durP1;ratioP1;P1;durP2;ratioP2;P2;SDS_P1;SDS_P2;PMS_P1;PMS_P2;Temp;Humidity;BMP_temperature;BMP_pressure;BME280_temperature;BME280_humidity;BME280_pressure;Samples;Min_cycle;Max_cycle;Signal;HPM_P1;HPM_P2
2023/06/08 03:17:11;;;;;;;4.38;2.15;;;16.40;70.70;;;;;;6207405;22;89697;-83
2023/06/08 03:19:37;;;;;;;4.47;2.33;;;16.30;70.70;;;;;;6251409;22;88484;-81
2023/06/08 03:22:06;;;;;;;3.88;1.95;;;16.40;70.30;;;;;;6251205;22;87128;-81
2023/06/08 03:24:33;;;;;;;4.78;2.28;;;16.30;70.20;;;;;;6251902;22;87256;-80
2023/06/08 03:26:59;;;;;;;5.13;2.17;;;16.40;70.10;;;;;;6252092;22;88561;-82
2023/06/08 03:29:27;;;;;;;6.57;2.15;;;16.40;69.90;;;;;;6252136;22;87404;-81
2023/06/08 03:31:53;;;;;;;4.80;2.20;;;16.40;70.00;;;;;;6253894;22;87216;-83
2023/06/08 03:34:20;;;;;;;6.57;2.40;;;16.40;70.00;;;;;;6252064;22;87588;-82
2023/06/08 03:36:46;;;;;;;4.90;2.17;;;16.50;69.80;;;;;;6252233;22;87484;-83
2023/06/08 03:39:12;;;;;;;5.93;1.80;;;16.50;69.90;;;;;;6252224;22;88364;-84
2023/06/08 03:41:38;;;;;;;4.30;1.70;;;16.50;70.70;;;;;;6252377;22;88295;-84
2023/06/08 03:44:03;;;;;;;4.90;2.00;;;16.50;70.00;;;;;;6253357;22;87433;-81
2023/06/08 03:46:29;;;;;;;7.60;2.08;;;16.60;70.50;;;;;;6251980;22;88866;-83
2023/06/08 03:48:55;;;;;;;3.80;1.70;;;16.60;70.00;;;;;;6252245;22;87739;-85
2023/06/08 03:51:21;;;;;;;5.68;1.80;;;16.70;69.60;;;;;;6251511;22;86990;-82
2023/06/08 03:53:51;;;;;;;5.95;1.90;;;16.80;69.50;;;;;;6251459;22;87440;-81
2023/06/08 03:56:17;;;;;;;4.63;1.90;;;16.90;69.40;;;;;;6250674;22;87297;-81
2023/06/08 03:58:44;;;;;;;10.13;1.88;;;17.00;69.20;;;;;;6250425;22;87852;-82
2023/06/08 04:01:11;;;;;;;3.90;1.65;;;17.30;69.10;;;;;;6250984;22;87231;-83
2023/06/08 04:03:37;;;;;;;6.47;2.35;;;17.60;68.40;;;;;;6249363;22;87390;-82
2023/06/08 04:06:05;;;;;;;3.78;1.70;;;17.90;66.90;;;;;;6249589;22;88296;-80
2023/06/08 04:08:32;;;;;;;6.68;2.50;;;18.40;65.90;;;;;;6249663;22;87750;-79
2023/06/08 04:10:58;;;;;;;4.22;1.70;;;18.70;64.40;;;;;;6250320;22;87496;-81
2023/06/08 04:13:25;;;;;;;3.97;1.90;;;19.00;63.60;;;;;;6250298;22;87056;-80
2023/06/08 04:15:51;;;;;;;4.07;2.03;;;19.40;62.70;;;;;;6250173;22;87512;-80
2023/06/08 04:18:17;;;;;;;5.53;2.03;;;19.70;62.00;;;;;;6220488;22;88008;-80
2023/06/08 04:20:42;;;;;;;4.15;2.05;;;19.80;61.20;;;;;;6218837;22;87724;-80
2023/06/08 04:23:10;;;;;;;4.40;2.00;;;20.00;60.90;;;;;;6220748;22;86828;-80
2023/06/08 04:25:36;;;;;;;4.32;2.05;;;20.30;60.50;;;;;;6219690;22;87255;-81
2023/06/08 04:28:02;;;;;;;4.30;2.00;;;20.60;59.50;;;;;;6220325;22;87256;-82
2023/06/08 04:30:28;;;;;;;5.22;1.83;;;21.00;58.40;;;;;;6219351;22;88034;-83
2023/06/08 04:32:55;;;;;;;3.97;1.80;;;21.30;57.70;;;;;;6220845;22;86930;-83
2023/06/08 04:35:21;;;;;;;3.67;1.92;;;21.80;56.90;;;;;;6219572;22;87320;-82
2023/06/08 04:37:47;;;;;;;6.53;2.17;;;22.40;55.30;;;;;;6220532;22;87341;-82
2023/06/08 04:40:13;;;;;;;4.18;1.88;;;22.80;53.60;;;;;;6221673;22;87361;-83
2023/06/08 04:42:40;;;;;;;3.60;1.90;;;23.10;53.10;;;;;;6222683;22;87151;-82
2023/06/08 04:45:08;;;;;;;3.63;1.90;;;23.50;53.20;;;;;;6194531;22;89793;-82
2023/06/08 04:47:37;;;;;;;3.05;1.70;;;24.00;51.10;;;;;;6220026;22;86568;-82
2023/06/08 04:50:03;;;;;;;3.97;1.85;;;24.40;51.20;;;;;;6219079;22;87442;-82
2023/06/08 04:52:30;;;;;;;5.25;2.15;;;24.70;50.20;;;;;;6215509;22;87495;-81
2023/06/08 04:55:00;;;;;;;4.07;2.00;;;25.10;49.60;;;;;;6216371;22;89152;-79
2023/06/08 04:57:26;;;;;;;3.75;2.33;;;25.40;48.80;;;;;;6218787;22;87874;-79
2023/06/08 04:59:52;;;;;;;2.33;1.58;;;25.80;48.40;;;;;;6218564;22;87250;-79
2023/06/08 05:02:18;;;;;;;4.25;2.03;;;26.20;48.20;;;;;;6218775;22;87005;-83
2023/06/08 05:04:44;;;;;;;5.13;2.55;;;26.80;47.00;;;;;;6218225;22;87934;-80
2023/06/08 05:07:10;;;;;;;5.30;2.38;;;27.20;46.40;;;;;;6218013;22;87693;-78
2023/06/08 05:09:35;;;;;;;5.28;2.33;;;27.40;44.80;;;;;;6218428;22;87346;-81
2023/06/08 05:12:01;;;;;;;4.93;2.20;;;27.70;45.30;;;;;;6219198;22;86937;-80
2023/06/08 05:14:27;;;;;;;3.13;2.10;;;28.00;45.40;;;;;;6218000;22;87093;-77
2023/06/08 05:16:52;;;;;;;2.50;1.55;;;28.50;44.60;;;;;;6217640;22;87988;-85
2023/06/08 05:19:18;;;;;;;4.40;2.83;;;28.80;43.70;;;;;;6218934;22;88605;-81
2023/06/08 05:21:44;;;;;;;6.03;2.67;;;29.20;42.70;;;;;;6219287;22;87538;-84
2023/06/08 05:24:09;;;;;;;4.97;2.90;;;29.30;43.10;;;;;;6217713;22;88581;-83
2023/06/08 05:26:35;;;;;;;3.35;2.67;;;29.50;42.50;;;;;;6217710;22;88112;-82
2023/06/08 05:29:01;;;;;;;3.42;2.22;;;29.60;42.20;;;;;;6218008;22;87505;-79
2023/06/08 05:31:27;;;;;;;5.03;2.63;;;30.10;42.30;;;;;;6219716;22;87264;-85
2023/06/08 05:33:53;;;;;;;5.22;2.78;;;30.20;41.30;;;;;;6219419;22;87999;-80
2023/06/08 05:36:19;;;;;;;4.53;3.15;;;30.40;41.70;;;;;;6219400;22;87245;-79
2023/06/08 05:38:45;;;;;;;5.43;3.25;;;31.00;40.70;;;;;;6220028;22;87205;-82
2023/06/08 05:41:10;;;;;;;4.10;3.28;;;31.70;40.20;;;;;;6220185;22;87237;-81
2023/06/08 05:43:36;;;;;;;8.00;3.63;;;32.00;41.30;;;;;;6218743;22;88470;-83
2023/06/08 05:46:02;;;;;;;6.20;3.63;;;32.20;40.60;;;;;;6220618;22;89028;-82
2023/06/08 05:48:27;;;;;;;7.43;3.03;;;32.70;39.70;;;;;;6220640;22;87124;-81
2023/06/08 05:50:53;;;;;;;6.22;3.53;;;33.00;38.70;;;;;;6220314;22;87405;-81
2023/06/08 05:53:18;;;;;;;4.75;3.55;;;33.30;37.90;;;;;;6220308;22;88157;-80
2023/06/08 05:55:44;;;;;;;4.50;3.53;;;32.80;38.00;;;;;;6220102;22;87805;-83
2023/06/08 05:58:11;;;;;;;10.02;3.45;;;33.50;38.10;;;;;;6222914;22;87326;-84
2023/06/08 06:00:37;;;;;;;4.63;3.55;;;33.90;37.90;;;;;;6224399;22;86230;-82
2023/06/08 06:03:02;;;;;;;6.90;3.58;;;34.10;37.00;;;;;;6220745;22;88563;-82
2023/06/08 06:05:29;;;;;;;4.72;4.00;;;34.30;36.90;;;;;;6219181;22;88256;-83
2023/06/08 06:07:54;;;;;;;6.80;3.60;;;34.80;36.60;;;;;;6220608;22;88179;-81
2023/06/08 06:10:20;;;;;;;5.18;3.70;;;34.80;36.60;;;;;;6220485;22;87026;-85
2023/06/08 06:12:46;;;;;;;17.70;4.45;;;35.20;36.10;;;;;;6219798;22;88156;-82
2023/06/08 06:15:12;;;;;;;5.45;4.25;;;35.50;35.80;;;;;;6219082;22;87375;-82
2023/06/08 06:17:38;;;;;;;5.88;3.00;;;35.90;35.70;;;;;;6219056;22;87289;-82
2023/06/08 06:20:07;;;;;;;8.18;4.10;;;36.20;35.00;;;;;;6219179;22;87313;-84
2023/06/08 06:22:33;;;;;;;5.93;4.53;;;36.80;33.70;;;;;;6218766;22;87507;-84
2023/06/08 06:24:58;;;;;;;6.30;4.13;;;37.00;33.70;;;;;;6219557;22;87777;-84
2023/06/08 06:27:24;;;;;;;4.78;2.72;;;37.00;34.10;;;;;;6219109;22;87278;-81
2023/06/08 06:29:50;;;;;;;4.35;2.47;;;37.10;34.40;;;;;;6218143;22;87573;-81
2023/06/08 06:32:15;;;;;;;5.50;3.80;;;37.30;33.90;;;;;;6216886;22;89332;-81
2023/06/08 06:34:44;;;;;;;8.25;5.30;;;38.00;33.80;;;;;;6216797;22;89148;-87
2023/06/08 06:37:10;;;;;;;5.43;4.30;;;38.80;33.60;;;;;;6220743;22;87003;-84
2023/06/08 06:39:35;;;;;;;5.68;4.50;;;39.60;33.50;;;;;;6218648;22;87532;-85
2023/06/08 06:42:01;;;;;;;9.00;5.03;;;39.80;32.60;;;;;;6216156;22;87896;-83
2023/06/08 06:44:28;;;;;;;4.85;3.95;;;39.60;33.00;;;;;;6219686;22;88052;-80
2023/06/08 06:46:53;;;;;;;6.63;5.10;;;38.90;32.40;;;;;;6217746;22;87157;-81
2023/06/08 06:49:19;;;;;;;6.70;5.43;;;39.40;32.90;;;;;;6217731;22;86555;-81
2023/06/08 06:51:45;;;;;;;7.18;5.00;;;39.50;33.00;;;;;;6189624;22;88876;-81
2023/06/08 06:54:10;;;;;;;10.27;6.38;;;39.30;31.50;;;;;;6189259;22;91262;-81
2023/06/08 06:56:36;;;;;;;7.75;3.88;;;39.70;32.60;;;;;;6219495;22;88382;-81
2023/06/08 06:59:02;;;;;;;7.55;5.63;;;40.20;33.70;;;;;;6218722;22;86968;-80
2023/06/08 07:01:30;;;;;;;8.50;6.78;;;40.60;34.40;;;;;;6218186;22;87482;-81
2023/06/08 07:03:56;;;;;;;10.55;6.22;;;40.90;33.50;;;;;;6217529;22;87616;-85
2023/06/08 07:06:24;;;;;;;7.55;6.75;;;41.20;33.80;;;;;;6218853;22;87688;-85
2023/06/08 07:08:50;;;;;;;7.78;6.45;;;41.50;32.90;;;;;;6218415;22;87324;-83
2023/06/08 07:11:16;;;;;;;9.70;6.85;;;41.60;33.30;;;;;;6216857;22;87997;-84
2023/06/08 07:13:41;;;;;;;9.20;7.68;;;41.50;33.00;;;;;;6217180;22;88286;-82
2023/06/08 07:16:07;;;;;;;9.32;6.50;;;41.70;33.20;;;;;;6215819;22;87354;-83
2023/06/08 07:18:33;;;;;;;9.77;7.78;;;41.20;33.30;;;;;;6216577;22;87570;-82
2023/06/08 07:20:58;;;;;;;7.82;7.03;;;41.70;33.10;;;;;;6215337;22;89209;-83
2023/06/08 07:23:24;;;;;;;8.73;8.02;;;42.20;32.60;;;;;;6216451;22;88335;-82
2023/06/08 07:25:51;;;;;;;8.57;6.53;;;42.30;32.60;;;;;;6216809;22;87125;-83
2023/06/08 07:28:17;;;;;;;10.20;8.35;;;42.10;32.20;;;;;;6214879;22;87359;-83
2023/06/08 07:30:42;;;;;;;12.48;8.52;;;42.30;32.70;;;;;;6219267;22;87875;-85
2023/06/08 07:33:08;;;;;;;7.57;6.78;;;42.10;32.30;;;;;;6225852;22;87296;-86
2023/06/08 07:35:34;;;;;;;7.93;7.03;;;42.40;32.10;;;;;;6216167;22;86989;-81
2023/06/08 07:38:00;;;;;;;9.50;7.85;;;42.70;31.70;;;;;;6217796;22;86397;-82
2023/06/08 07:40:25;;;;;;;8.48;7.65;;;42.70;31.90;;;;;;6215276;22;87442;-82
2023/06/08 07:42:51;;;;;;;8.43;7.57;;;42.30;32.70;;;;;;6215975;22;87324;-83
2023/06/08 07:45:17;;;;;;;8.27;7.47;;;42.40;31.90;;;;;;6216119;22;88318;-83
2023/06/08 07:47:43;;;;;;;9.23;8.15;;;42.10;32.50;;;;;;6217763;22;87340;-82
2023/06/08 07:50:10;;;;;;;7.57;6.88;;;42.50;33.30;;;;;;6216037;22;88537;-83
2023/06/08 07:52:37;;;;;;;9.07;8.10;;;43.20;31.60;;;;;;6216847;22;87635;-83
2023/06/08 07:55:05;;;;;;;9.27;8.23;;;43.70;31.60;;;;;;6215680;22;87285;-84
2023/06/08 07:57:30;;;;;;;8.35;7.38;;;43.80;30.80;;;;;;6216944;22;87363;-82
2023/06/08 07:59:56;;;;;;;8.48;7.53;;;43.60;30.60;;;;;;6216571;22;87978;-85
2023/06/08 08:02:22;;;;;;;7.82;5.32;;;43.60;30.20;;;;;;6217464;22;88442;-83
2023/06/08 08:04:48;;;;;;;8.00;7.25;;;43.90;30.20;;;;;;6214777;22;87031;-85
2023/06/08 08:07:13;;;;;;;11.50;9.05;;;44.10;31.60;;;;;;6189383;22;87584;-83
2023/06/08 08:09:41;;;;;;;7.28;5.63;;;44.10;30.40;;;;;;6217844;22;88500;-83
2023/06/08 08:12:11;;;;;;;9.27;8.45;;;44.40;30.80;;;;;;6217473;22;89117;-82
2023/06/08 08:14:37;;;;;;;8.90;8.10;;;44.20;30.80;;;;;;6217415;22;87337;-84
2023/06/08 08:17:04;;;;;;;8.52;7.82;;;43.90;30.00;;;;;;6218738;22;87415;-83
2023/06/08 08:19:30;;;;;;;11.85;9.15;;;44.20;30.40;;;;;;6217479;22;88179;-84
2023/06/08 08:21:55;;;;;;;11.18;10.27;;;44.80;29.70;;;;;;6218912;22;88172;-83
2023/06/08 08:24:21;;;;;;;8.30;5.57;;;45.10;30.00;;;;;;6218084;22;87242;-83
2023/06/08 08:26:47;;;;;;;9.50;8.70;;;44.90;29.60;;;;;;6219434;22;86779;-82
2023/06/08 08:29:12;;;;;;;10.27;9.25;;;45.10;29.30;;;;;;6217617;22;87603;-83
2023/06/08 08:31:38;;;;;;;11.30;10.27;;;45.10;30.00;;;;;;6218030;22;87676;-83
2023/06/08 08:34:04;;;;;;;9.90;8.90;;;45.20;30.70;;;;;;6215641;22;88351;-83
2023/06/08 08:36:30;;;;;;;9.93;9.02;;;45.60;29.00;;;;;;6217087;22;87395;-85
2023/06/08 08:38:56;;;;;;;9.77;8.75;;;45.10;28.60;;;;;;6217178;22;88487;-86
2023/06/08 08:41:28;;;;;;;10.15;9.15;;;45.30;29.10;;;;;;6216136;22;87747;-83
2023/06/08 08:44:07;;;;;;;10.20;8.80;;;45.90;28.90;;;;;;6216177;22;87315;-83
2023/06/08 08:46:34;;;;;;;9.55;8.75;;;45.90;28.20;;;;;;6217212;22;87924;-84
2023/06/08 08:49:04;;;;;;;10.43;9.27;;;45.90;28.40;;;;;;6217160;22;87653;-83
2023/06/08 08:51:32;;;;;;;10.35;9.35;;;45.80;28.60;;;;;;6216848;22;87825;-86
2023/06/08 08:54:02;;;;;;;11.23;10.27;;;45.90;28.90;;;;;;6215881;22;87356;-83
2023/06/08 08:56:29;;;;;;;9.77;8.77;;;46.00;28.20;;;;;;6216376;22;88085;-82
2023/06/08 08:58:55;;;;;;;9.82;8.82;;;46.20;28.40;;;;;;6214336;22;88381;-85
2023/06/08 09:01:26;;;;;;;11.93;10.70;;;46.50;28.70;;;;;;6215823;22;88692;-84
2023/06/08 09:03:52;;;;;;;10.88;9.85;;;46.50;29.10;;;;;;6216278;22;87428;-87
2023/06/08 09:06:18;;;;;;;11.77;10.63;;;46.10;29.10;;;;;;6217477;22;87899;-83
2023/06/08 09:08:43;;;;;;;13.57;10.70;;;45.80;29.20;;;;;;6217295;22;88425;-83
2023/06/08 09:11:10;;;;;;;10.98;9.10;;;46.00;28.70;;;;;;6216556;22;88110;-83
2023/06/08 09:13:38;;;;;;;10.63;9.52;;;46.10;29.70;;;;;;6217100;22;87366;-84
2023/06/08 09:16:11;;;;;;;;;;;46.10;29.20;;;;;;6219184;22;87095;-82
2023/06/08 09:18:37;;;;;;;9.85;8.88;;;45.70;28.70;;;;;;6217756;22;87563;-83
2023/06/08 09:21:28;;;;;;;12.40;9.27;;;46.00;29.60;;;;;;6217311;22;88229;-82
2023/06/08 09:24:04;;;;;;;7.97;7.18;;;45.40;29.70;;;;;;6217599;22;88112;-83
2023/06/08 09:26:31;;;;;;;13.52;10.38;;;45.40;30.00;;;;;;6217878;22;87602;-84
2023/06/08 09:28:57;;;;;;;11.27;9.43;;;44.90;30.00;;;;;;6190315;22;89364;-86
2023/06/08 09:31:29;;;;;;;13.10;8.95;;;45.20;30.20;;;;;;6216681;22;87878;-82
2023/06/08 09:34:07;;;;;;;9.68;8.70;;;45.30;29.90;;;;;;6216181;22;87436;-86
2023/06/08 09:36:39;;;;;;;10.48;9.48;;;45.40;29.30;;;;;;6215844;22;87503;-83
2023/06/08 09:39:08;;;;;;;10.13;9.23;;;45.40;29.80;;;;;;6217735;22;87701;-83
2023/06/08 09:41:38;;;;;;;9.95;9.05;;;45.60;29.20;;;;;;6217388;22;87739;-84
2023/06/08 09:44:17;;;;;;;11.52;9.30;;;45.80;29.20;;;;;;6218070;22;87267;-83
2023/06/08 09:46:46;;;;;;;11.30;7.80;;;45.30;29.80;;;;;;6218508;22;87526;-83
2023/06/08 09:49:13;;;;;;;10.10;9.10;;;45.00;29.70;;;;;;6217761;22;88577;-82
2023/06/08 09:51:48;;;;;;;9.85;7.68;;;44.80;29.90;;;;;;6217201;22;88711;-82
2023/06/08 09:54:16;;;;;;;8.05;7.10;;;44.90;30.10;;;;;;6217362;22;87201;-83
2023/06/08 09:56:47;;;;;;;8.73;7.78;;;44.10;30.30;;;;;;6218479;22;87382;-83
2023/06/08 09:59:17;;;;;;;7.22;6.50;;;43.40;30.10;;;;;;6218235;22;87574;-83
2023/06/08 10:01:54;;;;;;;8.95;7.93;;;42.70;31.20;;;;;;6214676;22;87825;-84
2023/06/08 10:04:31;;;;;;;5.78;4.80;;;41.90;30.50;;;;;;6214309;22;87521;-82
2023/06/08 10:07:02;;;;;;;6.55;5.90;;;40.20;31.90;;;;;;6216351;22;86726;-83
2023/06/08 10:09:32;;;;;;;5.40;4.90;;;38.70;32.80;;;;;;6215110;22;87571;-82
2023/06/08 10:12:00;;;;;;;6.70;4.88;;;37.30;33.90;;;;;;6214637;22;87330;-83
2023/06/08 10:14:26;;;;;;;7.03;4.68;;;35.90;35.80;;;;;;6213603;22;88390;-83
2023/06/08 10:16:56;;;;;;;7.38;4.35;;;34.90;36.90;;;;;;6214994;22;87429;-82
2023/06/08 10:19:23;;;;;;;6.82;3.17;;;34.20;36.10;;;;;;6215038;22;88882;-82
2023/06/08 10:21:53;;;;;;;6.68;3.72;;;33.90;38.00;;;;;;6213056;22;88292;-84
2023/06/08 10:24:21;;;;;;;5.63;3.70;;;33.40;37.70;;;;;;6185832;22;87424;-82
2023/06/08 10:26:50;;;;;;;4.90;3.33;;;33.00;39.10;;;;;;6214702;22;87262;-84
2023/06/08 10:29:17;;;;;;;5.00;4.05;;;32.90;38.80;;;;;;6213479;22;87846;-84
2023/06/08 10:31:47;;;;;;;6.82;2.38;;;32.60;39.10;;;;;;6213572;22;88318;-83
2023/06/08 10:34:14;;;;;;;6.15;3.28;;;32.30;39.10;;;;;;6216008;22;87513;-83
2023/06/08 10:36:41;;;;;;;4.70;3.15;;;32.10;41.30;;;;;;6213684;22;87654;-82
2023/06/08 10:39:12;;;;;;;6.50;3.35;;;31.70;40.30;;;;;;6215022;22;89132;-81
2023/06/08 10:41:52;;;;;;;5.32;3.70;;;31.50;39.20;;;;;;6188547;22;91688;-82
2023/06/08 10:44:31;;;;;;;6.47;3.15;;;31.60;40.70;;;;;;6215005;22;87452;-81
2023/06/08 10:47:04;;;;;;;6.43;3.42;;;31.50;41.20;;;;;;6218148;22;87349;-82
2023/06/08 10:49:34;;;;;;;5.13;3.42;;;31.40;40.30;;;;;;6214204;22;88695;-84
2023/06/08 10:52:01;;;;;;;6.97;3.33;;;31.20;39.60;;;;;;6215720;22;87539;-81
2023/06/08 10:54:27;;;;;;;4.43;3.03;;;31.30;41.60;;;;;;6215799;22;87638;-86
2023/06/08 10:56:55;;;;;;;5.25;3.55;;;31.40;40.10;;;;;;6217670;22;86591;-81
2023/06/08 10:59:37;;;;;;;4.43;2.95;;;31.40;40.80;;;;;;6216578;22;87975;-86
2023/06/08 11:02:06;;;;;;;6.65;2.88;;;31.40;42.70;;;;;;6214614;22;87806;-80
2023/06/08 11:04:33;;;;;;;5.57;3.75;;;31.20;42.70;;;;;;6216320;22;88324;-82
2023/06/08 11:07:06;;;;;;;4.13;2.97;;;31.20;42.70;;;;;;6217733;22;87548;-81
2023/06/08 11:09:36;;;;;;;5.07;3.47;;;31.30;42.20;;;;;;6217294;22;87996;-82
2023/06/08 11:12:03;;;;;;;6.00;3.65;;;31.20;39.00;;;;;;6216369;22;88481;-81
2023/06/08 11:14:29;;;;;;;7.57;2.80;;;30.90;42.60;;;;;;6218030;22;87450;-80
2023/06/08 11:16:56;;;;;;;8.68;3.58;;;30.90;41.60;;;;;;6217096;22;87115;-81
2023/06/08 11:19:24;;;;;;;7.75;3.70;;;30.70;41.10;;;;;;6218171;22;87739;-84
2023/06/08 11:21:53;;;;;;;5.35;4.28;;;30.80;41.90;;;;;;6217923;22;88250;-81
2023/06/08 11:24:20;;;;;;;3.55;2.90;;;30.60;42.80;;;;;;6218143;22;87644;-82
2023/06/08 11:26:46;;;;;;;4.45;3.28;;;30.80;43.40;;;;;;6218405;22;87668;-80
2023/06/08 11:29:13;;;;;;;7.18;3.60;;;30.60;42.60;;;;;;6217761;22;89894;-81
2023/06/08 11:31:42;;;;;;;7.82;3.60;;;30.60;42.50;;;;;;6218584;22;88639;-80
2023/06/08 11:34:12;;;;;;;5.50;3.92;;;30.70;44.40;;;;;;6217727;22;87762;-82
2023/06/08 11:36:42;;;;;;;7.10;3.75;;;30.60;44.90;;;;;;6219147;22;87542;-81
2023/06/08 11:39:10;;;;;;;5.80;3.55;;;30.50;46.20;;;;;;6218417;22;88560;-81
2023/06/08 11:41:37;;;;;;;4.75;3.47;;;30.50;45.50;;;;;;6216696;22;88069;-82
2023/06/08 11:44:03;;;;;;;8.13;3.50;;;30.60;46.10;;;;;;6218137;22;87376;-80
2023/06/08 11:46:28;;;;;;;5.90;3.25;;;30.70;44.30;;;;;;6218990;22;86271;-82
2023/06/08 11:49:07;;;;;;;7.25;3.63;;;30.80;45.10;;;;;;6218519;22;87989;-81
2023/06/08 11:51:33;;;;;;;5.45;3.53;;;30.60;45.00;;;;;;6218459;22;87631;-80
2023/06/08 11:53:58;;;;;;;4.60;3.13;;;30.60;44.50;;;;;;6217398;22;88548;-80
2023/06/08 11:56:25;;;;;;;5.50;2.60;;;30.40;45.00;;;;;;6214333;22;87504;-81
2023/06/08 11:58:53;;;;;;;4.95;3.40;;;30.50;45.20;;;;;;6217964;22;87588;-81
2023/06/08 12:01:19;;;;;;;7.85;3.45;;;30.50;45.70;;;;;;6217650;22;87742;-80
2023/06/08 12:03:49;;;;;;;5.07;2.70;;;30.50;44.90;;;;;;6217702;22;87177;-81
2023/06/08 12:06:16;;;;;;;4.82;2.72;;;30.50;44.60;;;;;;6217835;22;87370;-82
2023/06/08 12:08:42;;;;;;;6.22;3.25;;;30.50;44.00;;;;;;6217790;22;87478;-80
2023/06/08 12:11:11;;;;;;;4.40;3.00;;;30.40;43.50;;;;;;6218961;22;87154;-80
2023/06/08 12:13:40;;;;;;;9.23;2.83;;;30.00;43.30;;;;;;6218355;22;87008;-81
2023/06/08 12:16:08;;;;;;;6.07;2.90;;;30.10;45.00;;;;;;6218184;22;87360;-83
2023/06/08 12:18:38;;;;;;;7.72;3.13;;;30.30;44.00;;;;;;6218104;22;88988;-80
2023/06/08 12:21:08;;;;;;;4.95;3.28;;;30.20;44.00;;;;;;6217595;22;88307;-82
2023/06/08 12:23:34;;;;;;;5.43;3.33;;;30.30;44.80;;;;;;6216872;22;87612;-83
2023/06/08 12:26:00;;;;;;;5.97;2.42;;;30.60;45.30;;;;;;6218492;22;87275;-81
2023/06/08 12:28:26;;;;;;;6.32;2.85;;;30.70;44.80;;;;;;6216941;22;87984;-81
2023/06/08 12:30:52;;;;;;;7.32;3.53;;;30.90;45.00;;;;;;6218108;22;87961;-82
2023/06/08 12:33:19;;;;;;;4.35;3.03;;;31.00;43.70;;;;;;6218526;22;87344;-80
2023/06/08 12:35:53;;;;;;;6.90;3.70;;;30.90;43.10;;;;;;6218551;22;86775;-81
2023/06/08 12:38:20;;;;;;;4.30;2.78;;;30.80;43.70;;;;;;6217573;22;88256;-81
2023/06/08 12:40:51;;;;;;;3.85;2.95;;;30.80;43.10;;;;;;6217221;22;87868;-81
2023/06/08 12:43:21;;;;;;;10.38;3.17;;;30.80;43.40;;;;;;6216672;22;88257;-81
2023/06/08 12:45:48;;;;;;;8.23;2.80;;;30.80;43.60;;;;;;6218270;22;87070;-81
2023/06/08 12:48:15;;;;;;;6.45;3.05;;;30.80;44.10;;;;;;6217903;22;88429;-81
2023/06/08 12:50:41;;;;;;;4.35;2.72;;;30.70;43.10;;;;;;6218137;22;87444;-81
2023/06/08 12:53:06;;;;;;;4.75;3.38;;;30.70;42.60;;;;;;6218349;22;87243;-82
2023/06/08 12:55:33;;;;;;;4.35;2.78;;;30.70;42.70;;;;;;6218586;22;86986;-81
2023/06/08 12:57:58;;;;;;;6.55;3.30;;;30.80;43.00;;;;;;6217672;22;88366;-82
2023/06/08 13:00:25;;;;;;;4.97;3.45;;;30.80;43.50;;;;;;6218246;22;87753;-83
2023/06/08 13:02:57;;;;;;;5.15;3.08;;;30.60;44.20;;;;;;6218428;22;87306;-81
2023/06/08 13:05:25;;;;;;;4.57;3.17;;;30.70;43.80;;;;;;6217959;22;87978;-82
2023/06/08 13:07:50;;;;;;;6.03;3.35;;;30.80;43.60;;;;;;6217110;22;89129;-81
2023/06/08 13:10:16;;;;;;;7.38;2.80;;;30.90;42.90;;;;;;6217893;22;88779;-83
2023/06/08 13:12:42;;;;;;;5.70;3.20;;;31.00;43.50;;;;;;6217716;22;87410;-82
2023/06/08 13:15:09;;;;;;;8.30;3.17;;;31.00;42.40;;;;;;6217936;22;87556;-80
2023/06/08 13:17:34;;;;;;;5.95;2.95;;;30.90;42.40;;;;;;6217090;22;87203;-80
2023/06/08 13:20:00;;;;;;;5.07;3.03;;;31.00;42.40;;;;;;6217967;22;88544;-81
2023/06/08 13:22:26;;;;;;;5.20;3.20;;;31.10;42.30;;;;;;6217404;22;87294;-82
2023/06/08 13:24:52;;;;;;;5.00;2.75;;;31.10;41.00;;;;;;6216737;22;86286;-80
2023/06/08 13:27:17;;;;;;;9.00;3.22;;;31.20;41.90;;;;;;6217512;22;87830;-81
2023/06/08 13:29:48;;;;;;;6.65;2.83;;;31.40;42.20;;;;;;6218430;22;87592;-80
2023/06/08 13:32:14;;;;;;;4.72;3.30;;;31.40;41.40;;;;;;6216553;22;88880;-80
2023/06/08 13:34:40;;;;;;;4.13;2.85;;;31.20;39.70;;;;;;6217327;22;87303;-81
2023/06/08 13:37:06;;;;;;;6.55;3.33;;;31.20;40.60;;;;;;6218491;22;88136;-82
2023/06/08 13:39:31;;;;;;;7.13;3.25;;;31.20;40.40;;;;;;6217037;22;88171;-82
2023/06/08 13:41:57;;;;;;;5.25;2.95;;;31.20;39.50;;;;;;6216800;22;87173;-82
2023/06/08 13:44:24;;;;;;;5.32;2.08;;;31.10;40.00;;;;;;6216746;22;87558;-81
2023/06/08 13:46:50;;;;;;;4.50;3.10;;;31.00;42.40;;;;;;6215604;22;87708;-83
2023/06/08 13:49:17;;;;;;;4.85;3.38;;;31.00;41.40;;;;;;6218436;22;86522;-81
2023/06/08 13:51:43;;;;;;;4.05;3.05;;;30.90;40.50;;;;;;6217096;22;87488;-82
2023/06/08 13:54:08;;;;;;;5.88;3.40;;;30.70;41.10;;;;;;6218294;22;87425;-82
2023/06/08 13:56:34;;;;;;;4.15;2.97;;;30.80;41.60;;;;;;6217051;22;89249;-82
2023/06/08 13:59:01;;;;;;;6.15;3.00;;;30.80;41.20;;;;;;6216969;22;89227;-73
2023/06/08 14:01:28;;;;;;;8.52;2.67;;;30.70;45.20;;;;;;6217248;22;87091;-72
2023/06/08 14:03:56;;;;;;;4.35;2.80;;;30.40;47.60;;;;;;6217297;22;87028;-73
2023/06/08 14:06:21;;;;;;;6.85;3.00;;;30.10;43.10;;;;;;6217194;22;87443;-74
2023/06/08 14:08:47;;;;;;;13.90;3.05;;;29.90;43.50;;;;;;6217574;22;87715;-74
2023/06/08 14:11:13;;;;;;;6.28;2.63;;;29.60;47.90;;;;;;6217546;22;87294;-73
2023/06/08 14:13:39;;;;;;;5.10;3.78;;;29.60;46.70;;;;;;6218092;22;86658;-72
2023/06/08 14:16:05;;;;;;;5.55;2.90;;;29.60;44.20;;;;;;6217802;22;87093;-76
2023/06/08 14:18:31;;;;;;;6.97;3.35;;;29.70;46.50;;;;;;6217110;22;87269;-73
2023/06/08 14:20:56;;;;;;;4.63;3.03;;;29.60;43.00;;;;;;6189862;22;88369;-73
2023/06/08 14:23:22;;;;;;;6.22;2.75;;;29.50;43.00;;;;;;6218067;22;87440;-73
2023/06/08 14:25:48;;;;;;;4.15;3.17;;;29.50;44.80;;;;;;6217444;22;88389;-73
2023/06/08 14:28:13;;;;;;;3.92;2.20;;;29.40;43.20;;;;;;6216326;22;88190;-73
2023/06/08 14:30:40;;;;;;;5.70;3.25;;;29.30;42.00;;;;;;6217711;22;87246;-73
2023/06/08 14:33:10;;;;;;;5.80;3.03;;;29.30;44.10;;;;;;6217464;22;87161;-74
2023/06/08 14:35:42;;;;;;;7.60;3.28;;;29.30;43.70;;;;;;6216815;22;87310;-75
2023/06/08 14:38:12;;;;;;;4.82;2.63;;;29.40;42.90;;;;;;6217164;22;87219;-72
2023/06/08 14:40:38;;;;;;;6.18;3.58;;;29.40;44.10;;;;;;6216706;22;86868;-73
2023/06/08 14:43:04;;;;;;;7.65;2.65;;;29.40;42.60;;;;;;6217801;22;87364;-72
2023/06/08 14:45:30;;;;;;;9.73;3.40;;;29.20;46.90;;;;;;6216010;22;88147;-72
2023/06/08 14:47:56;;;;;;;4.82;2.70;;;29.20;44.20;;;;;;6216671;22;87824;-72
2023/06/08 14:50:22;;;;;;;3.70;2.53;;;29.20;47.60;;;;;;6217307;22;87510;-72
2023/06/08 14:52:48;;;;;;;5.13;2.25;;;29.20;47.60;;;;;;6217003;22;87363;-74
2023/06/08 14:55:13;;;;;;;4.93;2.75;;;29.20;48.20;;;;;;6216851;22;87847;-73
2023/06/08 14:57:39;;;;;;;6.38;2.50;;;29.00;44.70;;;;;;6216759;22;87310;-75
2023/06/08 15:00:06;;;;;;;6.32;3.00;;;28.90;43.70;;;;;;6216942;22;87382;-76
2023/06/08 15:02:32;;;;;;;4.03;2.80;;;28.90;43.50;;;;;;6217763;22;86762;-74
2023/06/08 15:04:57;;;;;;;4.63;2.92;;;28.90;45.40;;;;;;6216553;22;87738;-75
2023/06/08 15:07:24;;;;;;;3.13;2.03;;;28.80;44.50;;;;;;6216835;22;87021;-75
2023/06/08 15:09:50;;;;;;;5.35;3.13;;;28.90;44.20;;;;;;6215995;22;88398;-75
2023/06/08 15:12:15;;;;;;;5.35;3.30;;;28.90;45.20;;;;;;6217160;22;87019;-74
2023/06/08 15:14:41;;;;;;;4.70;2.90;;;29.10;45.60;;;;;;6216304;22;88271;-74
2023/06/08 15:17:07;;;;;;;6.43;3.10;;;29.20;44.00;;;;;;6216418;22;87487;-74
2023/06/08 15:19:32;;;;;;;4.50;2.90;;;29.30;45.10;;;;;;6216203;22;87422;-74
2023/06/08 15:21:58;;;;;;;5.65;2.88;;;29.30;46.00;;;;;;6217135;22;87556;-73
2023/06/08 15:24:24;;;;;;;5.55;3.70;;;29.30;43.50;;;;;;6216228;22;88043;-72
2023/06/08 15:26:51;;;;;;;8.40;3.47;;;29.10;41.50;;;;;;6216521;22;87625;-72
2023/06/08 15:29:16;;;;;;;6.55;3.05;;;28.90;44.20;;;;;;6217002;22;87451;-72
2023/06/08 15:31:42;;;;;;;4.90;3.15;;;28.80;41.20;;;;;;6216992;22;87309;-72
2023/06/08 15:34:08;;;;;;;4.20;2.97;;;28.70;42.40;;;;;;6215473;22;88539;-75
2023/06/08 15:36:34;;;;;;;4.88;3.60;;;28.70;45.60;;;;;;6217569;22;87428;-74
2023/06/08 15:39:00;;;;;;;5.57;2.75;;;28.80;41.80;;;;;;6218126;22;87428;-74
2023/06/08 15:41:26;;;;;;;4.93;2.85;;;28.80;44.00;;;;;;6218073;22;87231;-74
2023/06/08 15:43:51;;;;;;;5.00;2.92;;;28.90;43.10;;;;;;6218048;22;87531;-74
2023/06/08 15:46:17;;;;;;;6.28;3.38;;;28.90;43.80;;;;;;6217852;22;88244;-74
2023/06/08 15:48:48;;;;;;;3.92;2.13;;;28.90;42.70;;;;;;6217542;22;87583;-74
2023/06/08 15:51:14;;;;;;;4.28;3.15;;;28.90;43.40;;;;;;6218955;22;86758;-73
2023/06/08 15:53:40;;;;;;;6.90;3.45;;;28.70;44.80;;;;;;6217659;22;88942;-75
2023/06/08 15:56:05;;;;;;;9.18;2.50;;;28.70;47.00;;;;;;6190945;22;88141;-76
2023/06/08 15:58:31;;;;;;;6.75;3.13;;;28.70;44.60;;;;;;6217085;22;88587;-75
2023/06/08 16:00:57;;;;;;;8.88;3.17;;;28.50;46.10;;;;;;6218706;22;87133;-74